createdAt,value
2022-09-06T00:02:13.164Z,9.53
2022-09-06T00:04:41.036Z,9.70
2022-09-06T00:07:08.842Z,7.27
2022-09-06T00:09:36.645Z,10.40
2022-09-06T00:12:04.788Z,10.13
2022-09-06T00:14:32.649Z,9.17
2022-09-06T00:17:00.477Z,7.90
2022-09-06T00:19:29.653Z,7.90
2022-09-06T00:21:57.491Z,8.23
2022-09-06T00:24:25.485Z,7.20
2022-09-06T00:26:53.295Z,9.10
2022-09-06T00:29:21.169Z,8.50
2022-09-06T00:31:48.997Z,7.10
2022-09-06T00:34:16.870Z,8.63
2022-09-06T00:36:46.014Z,7.60
2022-09-06T00:39:13.845Z,10.17
2022-09-06T00:41:41.820Z,8.80
2022-09-06T00:44:09.634Z,9.50
2022-09-06T00:46:40.787Z,9.80
2022-09-06T00:49:12.135Z,12.80
2022-09-06T00:51:41.238Z,12.20
2022-09-06T00:54:10.887Z,8.53
2022-09-06T00:56:43.140Z,12.20
2022-09-06T00:59:11.314Z,8.10
2022-09-06T01:01:39.367Z,8.83
2022-09-06T01:04:07.838Z,7.40
2022-09-06T01:06:45.868Z,8.60
2022-09-06T01:09:25.432Z,8.50
2022-09-06T01:12:05.820Z,8.87
2022-09-06T01:14:45.740Z,11.00
2022-09-06T01:17:22.837Z,8.80
2022-09-06T01:20:19.203Z,10.27
2022-09-06T01:23:13.632Z,8.43
2022-09-06T01:25:59.908Z,7.50
2022-09-06T01:28:34.253Z,7.97
2022-09-06T01:31:25.350Z,10.00
2022-09-06T01:34:12.255Z,9.03
2022-09-06T01:37:08.585Z,10.43
2022-09-06T01:39:37.109Z,7.67
2022-09-06T01:42:09.010Z,8.13
2022-09-06T01:44:42.170Z,10.47
2022-09-06T01:47:21.037Z,8.03
2022-09-06T01:50:01.613Z,7.43
2022-09-06T01:52:36.768Z,14.77
2022-09-06T01:55:17.829Z,9.20
2022-09-06T01:58:09.735Z,9.23
2022-09-06T02:00:47.709Z,11.60
2022-09-06T02:03:26.037Z,10.53
2022-09-06T02:05:59.159Z,8.17
2022-09-06T02:08:32.423Z,9.97
2022-09-06T02:11:02.875Z,12.30
2022-09-06T02:13:34.380Z,7.63
2022-09-06T02:16:05.992Z,8.00
2022-09-06T02:18:40.349Z,8.33
2022-09-06T02:21:11.358Z,8.37
2022-09-06T02:23:41.339Z,8.97
2022-09-06T02:26:13.953Z,10.63
2022-09-06T02:28:41.962Z,8.07
2022-09-06T02:31:16.087Z,8.07
2022-09-06T02:33:47.089Z,7.80
2022-09-06T02:36:15.803Z,10.60
2022-09-06T02:38:45.089Z,7.27
2022-09-06T02:41:15.172Z,7.33
2022-09-06T02:43:43.977Z,9.60
2022-09-06T02:46:13.703Z,9.03
2022-09-06T02:48:41.665Z,8.63
2022-09-06T02:51:10.730Z,8.77
2022-09-06T02:53:39.411Z,7.50
2022-09-06T02:56:07.724Z,9.33
2022-09-06T02:58:35.996Z,7.70
2022-09-06T03:01:04.028Z,8.60
2022-09-06T03:03:33.318Z,9.67
2022-09-06T03:06:01.201Z,7.97
2022-09-06T03:08:33.365Z,8.20
2022-09-06T03:11:02.147Z,9.17
2022-09-06T03:13:30.032Z,8.47
2022-09-06T03:15:59.832Z,8.27
2022-09-06T03:18:29.624Z,8.47
2022-09-06T03:20:59.543Z,9.40
2022-09-06T03:23:29.451Z,8.60
2022-09-06T03:25:57.909Z,8.63
2022-09-06T03:28:25.962Z,10.40
2022-09-06T03:30:54.240Z,8.53
2022-09-06T03:33:22.718Z,7.60
2022-09-06T03:35:52.033Z,9.77
2022-09-06T03:38:21.897Z,8.77
2022-09-06T03:40:50.288Z,9.27
2022-09-06T03:43:18.827Z,9.47
2022-09-06T03:45:47.766Z,7.77
2022-09-06T03:48:16.542Z,9.63
2022-09-06T03:50:46.917Z,7.53
2022-09-06T03:53:15.824Z,7.90
2022-09-06T03:55:47.339Z,7.93
2022-09-06T03:58:15.413Z,9.77
2022-09-06T04:00:43.437Z,7.50
2022-09-06T04:03:11.763Z,11.63
2022-09-06T04:05:39.656Z,11.67
2022-09-06T04:08:07.785Z,8.60
2022-09-06T04:10:35.597Z,8.23
2022-09-06T04:13:04.880Z,8.03
2022-09-06T04:15:32.799Z,8.67
2022-09-06T04:18:00.735Z,9.27
2022-09-06T04:20:28.565Z,12.67
2022-09-06T04:22:56.430Z,8.77
2022-09-06T04:25:24.298Z,9.07
2022-09-06T04:27:52.154Z,9.07
2022-09-06T04:30:21.364Z,13.73
2022-09-06T04:32:49.227Z,12.70
2022-09-06T04:35:17.189Z,9.50
2022-09-06T04:37:45.106Z,14.37
2022-09-06T04:40:13.443Z,8.33
2022-09-06T04:42:41.357Z,11.53
2022-09-06T04:45:10.417Z,8.63
2022-09-06T04:47:39.865Z,9.87
2022-09-06T04:50:08.810Z,10.37
2022-09-06T04:52:36.697Z,8.17
2022-09-06T04:55:05.379Z,10.10
2022-09-06T04:57:33.353Z,11.20
2022-09-06T05:00:01.346Z,9.90
2022-09-06T05:02:29.501Z,8.83
2022-09-06T05:04:58.909Z,9.63
2022-09-06T05:07:27.460Z,9.70
2022-09-06T05:09:55.433Z,8.00
2022-09-06T05:12:23.399Z,8.47
2022-09-06T05:14:51.364Z,9.07
2022-09-06T05:17:19.247Z,12.40
2022-09-06T05:19:47.856Z,10.77
2022-09-06T05:22:17.122Z,12.10
2022-09-06T05:24:46.365Z,10.80
2022-09-06T05:27:14.332Z,10.10
2022-09-06T05:29:42.210Z,9.07
2022-09-06T05:32:10.155Z,8.30
2022-09-06T05:34:38.036Z,10.73
2022-09-06T05:37:06.092Z,13.27
2022-09-06T05:39:35.492Z,10.93
2022-09-06T05:42:06.646Z,9.93
2022-09-06T05:44:34.937Z,8.50
2022-09-06T05:47:02.939Z,14.00
2022-09-06T05:49:31.260Z,8.93
2022-09-06T05:51:59.389Z,10.00
2022-09-06T05:54:27.278Z,8.97
2022-09-06T05:56:56.426Z,9.50
2022-09-06T05:59:24.308Z,11.17
2022-09-06T06:01:54.012Z,12.03
2022-09-06T06:04:23.017Z,10.33
2022-09-06T06:06:51.215Z,10.00
2022-09-06T06:09:19.161Z,11.50
2022-09-06T06:11:46.992Z,8.80
2022-09-06T06:14:16.172Z,8.30
2022-09-06T06:16:44.111Z,9.00
2022-09-06T06:19:11.985Z,8.90
2022-09-06T06:21:39.816Z,8.60
2022-09-06T06:24:07.956Z,12.70
2022-09-06T06:26:37.241Z,9.47
2022-09-06T06:29:08.193Z,11.77
2022-09-06T06:31:39.152Z,10.77
2022-09-06T06:34:07.313Z,10.13
2022-09-06T06:36:36.621Z,14.23
2022-09-06T06:39:08.363Z,11.40
2022-09-06T06:41:36.485Z,10.00
2022-09-06T06:44:06.089Z,12.90
2022-09-06T06:46:35.660Z,9.80
2022-09-06T06:49:05.296Z,8.87
2022-09-06T06:51:37.031Z,9.73
2022-09-06T06:54:05.358Z,9.57
2022-09-06T06:56:35.005Z,12.30
2022-09-06T06:59:05.138Z,11.83
2022-09-06T07:01:34.162Z,11.40
2022-09-06T07:04:02.208Z,15.03
2022-09-06T07:09:21.441Z,20.73
2022-09-06T07:11:50.024Z,21.10
2022-09-06T07:14:18.343Z,12.37
2022-09-06T07:16:46.937Z,14.17
2022-09-06T07:22:05.763Z,10.93
2022-09-06T07:24:34.247Z,9.90
2022-09-06T07:29:49.894Z,8.20
2022-09-06T07:32:17.712Z,8.80
2022-09-06T07:34:45.549Z,12.10
2022-09-06T07:37:14.730Z,9.03
2022-09-06T07:39:42.679Z,9.30
2022-09-06T07:42:10.632Z,8.47
2022-09-06T07:44:38.459Z,11.00
2022-09-06T07:55:34.033Z,9.30
2022-09-06T07:58:01.873Z,9.47
2022-09-06T08:00:29.823Z,8.53
2022-09-06T08:02:57.679Z,9.00
2022-09-06T08:11:02.593Z,10.87
2022-09-06T08:13:30.515Z,8.00
2022-09-06T08:16:01.625Z,8.83
2022-09-06T08:18:29.573Z,8.13
2022-09-06T08:20:57.393Z,8.60
2022-09-06T08:23:26.533Z,7.07
2022-09-06T08:25:58.504Z,9.10
2022-09-06T08:28:28.798Z,9.10
2022-09-06T08:30:57.171Z,6.77
2022-09-06T08:33:25.637Z,6.20
2022-09-06T08:35:57.236Z,7.53
2022-09-06T08:38:26.670Z,6.03
2022-09-06T08:40:56.167Z,7.10
2022-09-06T08:43:24.178Z,15.30
2022-09-06T08:45:57.342Z,9.97
2022-09-06T08:48:30.407Z,7.23
2022-09-06T08:51:11.903Z,10.33
2022-09-06T08:53:46.416Z,9.20
2022-09-06T08:56:21.135Z,8.40
2022-09-06T08:59:03.933Z,9.70
2022-09-06T09:01:38.994Z,7.27
2022-09-06T09:04:12.663Z,8.17
2022-09-06T09:06:40.506Z,7.93
2022-09-06T09:09:15.939Z,7.80
2022-09-06T09:11:48.185Z,6.83
2022-09-06T09:14:19.909Z,7.00
2022-09-06T09:16:51.376Z,7.03
2022-09-06T09:19:19.229Z,9.73
2022-09-06T09:21:47.273Z,9.23
2022-09-06T09:24:16.921Z,7.90
2022-09-06T09:26:52.102Z,7.13
2022-09-06T09:29:25.367Z,6.57
2022-09-06T09:31:56.460Z,7.90
2022-09-06T09:34:33.597Z,9.57
2022-09-06T09:40:13.843Z,7.50
2022-09-06T09:42:42.003Z,7.77
2022-09-06T09:45:25.349Z,7.13
2022-09-06T09:47:53.462Z,10.10
2022-09-06T09:50:27.991Z,10.90
2022-09-06T09:52:56.368Z,11.80
2022-09-06T09:55:27.352Z,7.73
2022-09-06T09:57:56.254Z,11.20
2022-09-06T10:00:35.910Z,10.03
2022-09-06T10:03:13.245Z,11.30
2022-09-06T10:05:42.444Z,16.40
2022-09-06T10:08:13.319Z,11.90
2022-09-06T10:10:47.471Z,11.20
2022-09-06T10:13:20.194Z,12.73
2022-09-06T10:15:49.856Z,11.60
2022-09-06T10:18:30.709Z,11.47
2022-09-06T10:21:01.901Z,11.60
2022-09-06T10:26:36.272Z,13.87
2022-09-06T10:29:07.037Z,12.97
2022-09-06T10:31:53.205Z,13.43
2022-09-06T10:34:55.762Z,9.70
2022-09-06T10:37:41.537Z,10.17
2022-09-06T10:40:11.898Z,10.27
2022-09-06T10:42:46.860Z,10.10
2022-09-06T10:45:28.374Z,11.77
2022-09-06T10:47:59.505Z,11.30
2022-09-06T10:50:35.536Z,11.20
2022-09-06T10:53:11.582Z,8.87
2022-09-06T10:55:41.200Z,10.63
2022-09-06T11:00:46.722Z,10.23
2022-09-06T11:06:13.936Z,11.00
2022-09-06T11:08:48.084Z,9.20
2022-09-06T11:11:23.178Z,10.80
2022-09-06T11:13:52.365Z,10.20
2022-09-06T11:16:25.774Z,14.13
2022-09-06T11:18:58.960Z,9.57
2022-09-06T11:22:14.413Z,16.57
2022-09-06T11:24:57.481Z,9.07
2022-09-06T11:27:35.753Z,9.50
2022-09-06T11:30:06.843Z,10.30
2022-09-06T11:32:40.064Z,9.30
2022-09-06T11:35:11.192Z,8.87
2022-09-06T11:37:42.871Z,7.13
2022-09-06T11:43:45.407Z,7.30
2022-09-06T11:46:58.607Z,9.23
2022-09-06T11:49:31.780Z,8.60
2022-09-06T11:51:59.873Z,9.17
2022-09-06T11:54:39.178Z,8.80
2022-09-06T11:57:15.364Z,8.70
2022-09-06T11:59:54.961Z,9.30
2022-09-06T12:02:38.990Z,10.10
2022-09-06T12:05:29.263Z,10.00
2022-09-06T12:08:29.084Z,10.00
2022-09-06T12:11:03.029Z,13.83
2022-09-06T12:13:42.668Z,12.30
2022-09-06T12:16:12.212Z,14.60
2022-09-06T12:19:01.461Z,11.60
2022-09-06T12:21:52.341Z,11.33
2022-09-06T12:24:55.903Z,11.10
2022-09-06T12:27:25.345Z,14.03
2022-09-06T12:29:58.035Z,13.70
2022-09-06T12:32:36.200Z,11.90
2022-09-06T12:38:03.751Z,10.10
2022-09-06T12:40:35.213Z,11.27
2022-09-06T12:43:04.774Z,10.73
2022-09-06T12:45:32.909Z,12.17
2022-09-06T12:48:09.807Z,10.73
2022-09-06T12:50:40.412Z,13.03
2022-09-06T12:53:24.381Z,11.57
2022-09-06T12:56:04.342Z,11.40
2022-09-06T12:58:32.504Z,12.37
2022-09-06T13:01:10.173Z,10.30
2022-09-06T13:03:42.269Z,11.80
2022-09-06T13:06:19.627Z,10.33
2022-09-06T13:08:51.576Z,11.50
2022-09-06T13:11:25.228Z,10.07
2022-09-06T13:13:54.865Z,7.57
2022-09-06T13:16:24.632Z,7.03
2022-09-06T13:18:52.689Z,5.53
2022-09-06T13:21:32.755Z,5.33
2022-09-06T13:24:03.917Z,5.80
2022-09-06T13:26:37.465Z,4.63
2022-09-06T13:29:23.273Z,6.23
2022-09-06T13:31:53.327Z,5.43
2022-09-06T13:34:23.151Z,7.90
2022-09-06T13:36:54.305Z,6.73
2022-09-06T13:39:35.867Z,4.80
2022-09-06T13:42:07.499Z,5.53
2022-09-06T13:44:36.363Z,4.90
2022-09-06T13:47:04.725Z,5.10
2022-09-06T13:49:33.769Z,4.77
2022-09-06T13:52:05.337Z,5.77
2022-09-06T13:54:33.895Z,6.90
2022-09-06T13:57:01.925Z,10.10
2022-09-06T13:59:31.452Z,5.60
2022-09-06T14:02:03.543Z,5.03
2022-09-06T14:04:31.914Z,4.93
2022-09-06T14:07:00.182Z,6.00
2022-09-06T14:09:29.746Z,6.00
2022-09-06T14:12:34.566Z,7.10
2022-09-06T14:15:02.754Z,9.60
2022-09-06T14:17:30.754Z,5.37
2022-09-06T14:19:58.702Z,8.93
2022-09-06T14:22:26.600Z,5.47
2022-09-06T14:24:55.840Z,7.17
2022-09-06T14:27:23.790Z,7.53
2022-09-06T14:29:51.806Z,5.60
2022-09-06T14:32:22.568Z,5.83
2022-09-06T14:34:50.643Z,4.87
2022-09-06T14:37:18.580Z,4.43
2022-09-06T14:40:27.127Z,4.57
2022-09-06T14:42:57.958Z,5.60
2022-09-06T14:45:25.876Z,5.93
2022-09-06T14:47:53.832Z,5.70
2022-09-06T14:50:21.748Z,5.47
2022-09-06T14:52:49.728Z,5.27
2022-09-06T14:55:17.706Z,5.37
2022-09-06T14:57:45.936Z,4.97
2022-09-06T15:00:16.109Z,5.80
2022-09-06T15:02:44.478Z,5.90
2022-09-06T15:05:12.421Z,6.13
2022-09-06T15:07:40.317Z,5.27
2022-09-06T15:10:08.753Z,6.20
2022-09-06T15:12:37.371Z,7.70
2022-09-06T15:15:06.340Z,9.40
2022-09-06T15:17:36.626Z,11.27
2022-09-06T15:20:05.838Z,9.80
2022-09-06T15:22:33.801Z,13.00
2022-09-06T15:25:01.723Z,10.13
2022-09-06T15:27:30.104Z,13.50
2022-09-06T15:29:57.972Z,12.80
2022-09-06T15:32:25.885Z,13.03
2022-09-06T15:34:55.194Z,13.40
2022-09-06T15:37:23.156Z,8.27
2022-09-06T15:39:51.104Z,9.43
2022-09-06T15:42:19.066Z,7.60
2022-09-06T15:44:46.944Z,8.53
2022-09-06T15:47:14.918Z,9.80
2022-09-06T15:49:43.006Z,9.90
2022-09-06T15:52:12.431Z,9.77
2022-09-06T15:54:57.985Z,10.10
2022-09-06T15:57:26.031Z,10.00
2022-09-06T15:59:53.956Z,8.50
2022-09-06T16:02:22.010Z,8.73
2022-09-06T16:04:50.018Z,8.87
2022-09-06T16:07:19.563Z,10.47
2022-09-06T16:09:47.467Z,9.03
2022-09-06T16:12:15.412Z,9.40
2022-09-06T16:14:43.329Z,10.30
2022-09-06T16:17:12.299Z,9.80
2022-09-06T16:19:40.841Z,10.23
2022-09-06T16:22:08.712Z,10.70
2022-09-06T16:24:39.138Z,11.00
2022-09-06T16:27:07.154Z,13.43
2022-09-06T16:29:36.180Z,10.80
2022-09-06T16:32:04.560Z,12.93
2022-09-06T16:34:32.480Z,12.80
2022-09-06T16:37:00.618Z,14.90
2022-09-06T16:39:28.520Z,16.77
2022-09-06T16:41:57.775Z,12.83
2022-09-06T16:44:26.117Z,12.17
2022-09-06T16:46:55.952Z,12.20
2022-09-06T16:49:24.434Z,11.30
2022-09-06T16:51:52.436Z,13.47
2022-09-06T16:54:21.872Z,17.07
2022-09-06T16:56:49.767Z,15.80
2022-09-06T16:59:19.178Z,14.33
2022-09-06T17:01:47.403Z,16.10
2022-09-06T17:04:15.885Z,16.30
2022-09-06T17:06:45.613Z,13.80
2022-09-06T17:09:14.997Z,11.60
2022-09-06T17:11:43.075Z,11.93
2022-09-06T17:14:11.052Z,12.20
2022-09-06T17:16:57.969Z,12.07
2022-09-06T17:19:26.493Z,10.73
2022-09-06T17:21:54.396Z,10.87
2022-09-06T17:24:22.567Z,10.30
2022-09-06T17:26:50.721Z,12.63
2022-09-06T17:29:18.744Z,13.10
2022-09-06T17:31:49.522Z,11.90
2022-09-06T17:34:17.796Z,11.73
2022-09-06T17:36:45.877Z,12.40
2022-09-06T17:39:15.866Z,12.40
2022-09-06T17:41:46.749Z,16.40
2022-09-06T17:44:16.913Z,16.90
2022-09-06T17:47:02.831Z,17.10
2022-09-06T17:49:34.979Z,18.17
2022-09-06T17:52:03.244Z,15.47
2022-09-06T17:54:31.736Z,16.63
2022-09-06T17:56:59.708Z,12.70
2022-09-06T17:59:31.588Z,13.77
2022-09-06T18:02:02.293Z,12.93
2022-09-06T18:04:30.227Z,13.40
2022-09-06T18:06:59.559Z,15.50
2022-09-06T18:09:27.503Z,15.10
2022-09-06T18:11:55.462Z,15.20
2022-09-06T18:14:23.386Z,37.00
2022-09-06T18:16:52.982Z,75.57
2022-09-06T18:19:22.274Z,46.07
2022-09-06T18:21:50.817Z,20.17
2022-09-06T18:24:20.268Z,19.93
2022-09-06T18:26:49.062Z,16.40
2022-09-06T18:29:18.388Z,12.70
2022-09-06T18:31:46.384Z,12.90
2022-09-06T18:34:15.933Z,13.00
2022-09-06T18:36:43.958Z,14.00
2022-09-06T18:39:13.143Z,14.03
2022-09-06T18:41:59.717Z,14.93
2022-09-06T18:44:31.884Z,16.83
2022-09-06T18:47:01.994Z,13.80
2022-09-06T18:49:30.772Z,17.20
2022-09-06T18:51:58.816Z,13.43
2022-09-06T18:54:26.738Z,14.10
2022-09-06T18:56:56.060Z,12.77
2022-09-06T18:59:24.050Z,14.80
2022-09-06T19:01:52.136Z,14.20
2022-09-06T19:04:20.873Z,15.30
2022-09-06T19:06:48.811Z,14.03
2022-09-06T19:09:17.887Z,18.47
2022-09-06T19:11:49.268Z,14.87
2022-09-06T19:14:19.442Z,16.10
2022-09-06T19:16:48.610Z,12.80
2022-09-06T19:19:16.601Z,17.33
2022-09-06T19:21:44.521Z,13.70
2022-09-06T19:24:14.554Z,15.00
2022-09-06T19:26:43.927Z,11.97
2022-09-06T19:29:14.507Z,13.00
2022-09-06T19:31:44.710Z,13.80
2022-09-06T19:34:15.211Z,13.07
2022-09-06T19:36:44.429Z,9.17
2022-09-06T19:39:15.316Z,10.60
2022-09-06T19:41:45.093Z,14.43
2022-09-06T19:44:14.283Z,10.40
2022-09-06T19:46:46.229Z,13.10
2022-09-06T19:49:15.568Z,10.10
2022-09-06T19:51:45.168Z,11.10
2022-09-06T19:54:15.304Z,11.43
2022-09-06T19:56:44.697Z,15.93
2022-09-06T19:59:13.886Z,11.13
2022-09-06T20:01:44.793Z,11.00
2022-09-06T20:04:14.436Z,11.20
2022-09-06T20:06:42.709Z,10.93
2022-09-06T20:09:11.595Z,10.07
2022-09-06T20:11:42.125Z,9.37
2022-09-06T20:14:11.034Z,9.20
2022-09-06T20:16:41.813Z,9.83
2022-09-06T20:19:13.074Z,14.93
2022-09-06T20:21:40.970Z,9.83
2022-09-06T20:24:09.010Z,9.43
2022-09-06T20:26:37.670Z,9.53
2022-09-06T20:29:06.746Z,10.33
2022-09-06T20:31:36.469Z,9.10
2022-09-06T20:34:05.661Z,9.30
2022-09-06T20:36:34.966Z,10.13
2022-09-06T20:39:03.171Z,14.40
2022-09-06T20:41:31.085Z,12.77
2022-09-06T20:44:00.371Z,11.03
2022-09-06T20:46:29.872Z,12.10
2022-09-06T20:48:59.763Z,12.07
2022-09-06T20:51:27.688Z,11.30
2022-09-06T20:53:58.170Z,12.20
2022-09-06T20:56:28.017Z,11.93
2022-09-06T20:58:57.430Z,9.57
2022-09-06T21:01:27.226Z,10.20
2022-09-06T21:03:56.936Z,10.27
2022-09-06T21:06:26.191Z,12.50
2022-09-06T21:08:54.434Z,10.23
2022-09-06T21:11:24.307Z,10.57
2022-09-06T21:13:53.786Z,9.97
2022-09-06T21:16:24.756Z,10.33
2022-09-06T21:18:53.693Z,9.60
2022-09-06T21:21:22.227Z,10.03
2022-09-06T21:23:50.445Z,12.53
2022-09-06T21:26:18.925Z,12.63
2022-09-06T21:28:48.677Z,13.50
2022-09-06T21:31:18.662Z,11.80
2022-09-06T21:33:48.194Z,8.23
2022-09-06T21:36:19.173Z,13.53
2022-09-06T21:38:48.474Z,13.83
2022-09-06T21:41:18.163Z,9.90
2022-09-06T21:43:48.276Z,10.03
2022-09-06T21:46:18.657Z,11.20
2022-09-06T21:48:48.153Z,12.60
2022-09-06T21:51:18.446Z,9.60
2022-09-06T21:53:49.269Z,8.87
2022-09-06T21:56:19.562Z,9.50
2022-09-06T21:58:51.343Z,9.87
2022-09-06T22:01:19.934Z,8.90
2022-09-06T22:03:48.221Z,9.17
2022-09-06T22:06:19.062Z,11.47
2022-09-06T22:08:47.660Z,16.20
2022-09-06T22:11:17.908Z,9.57
2022-09-06T22:13:46.732Z,13.33
2022-09-06T22:16:17.926Z,15.20
2022-09-06T22:18:46.705Z,13.80
2022-09-06T22:21:18.486Z,14.10
2022-09-06T22:23:50.941Z,14.63
2022-09-06T22:26:20.252Z,12.90
2022-09-06T22:28:48.554Z,12.20
2022-09-06T22:31:18.010Z,11.67
2022-09-06T22:33:45.970Z,11.33
2022-09-06T22:36:13.913Z,11.10
2022-09-06T22:38:41.864Z,9.73
2022-09-06T22:41:10.075Z,14.50
2022-09-06T22:43:38.133Z,13.10
2022-09-06T22:46:07.285Z,10.87
2022-09-06T22:48:37.143Z,15.03
2022-09-06T22:51:06.220Z,14.30
2022-09-06T22:53:34.985Z,10.70
2022-09-06T22:56:03.848Z,13.70
2022-09-06T22:58:31.892Z,12.43
2022-09-06T23:01:07.192Z,12.40
2022-09-06T23:03:36.758Z,12.67
2022-09-06T23:06:05.248Z,9.13
2022-09-06T23:08:34.657Z,10.70
2022-09-06T23:11:06.807Z,12.13
2022-09-06T23:13:34.837Z,12.10
2022-09-06T23:16:04.716Z,10.90
2022-09-06T23:18:32.823Z,12.33
2022-09-06T23:21:06.726Z,10.87
2022-09-06T23:23:35.336Z,9.67
2022-09-06T23:26:11.882Z,9.97
2022-09-06T23:28:40.247Z,9.77
2022-09-06T23:31:10.270Z,10.60
2022-09-06T23:33:38.377Z,10.30
2022-09-06T23:36:09.523Z,9.30
2022-09-06T23:38:39.556Z,10.27
2022-09-06T23:41:09.828Z,9.37
2022-09-06T23:43:38.190Z,9.00
2022-09-06T23:46:06.133Z,16.37
2022-09-06T23:48:34.174Z,11.77
2022-09-06T23:51:02.346Z,9.43
2022-09-06T23:53:31.841Z,10.50
2022-09-06T23:56:00.105Z,9.30
2022-09-06T23:58:28.513Z,9.57
